Terminal Aerodrome Forecast
Issued by NWS Huntsville, AL

Home | Current Version | Previous Version | Text Only | Print | Product List | Glossary On
Versions: 1 2 3 4 5 6 7 8 9 10 11 12 13 14 15 16 17 18 19 20 21 22 23 24 25 26 27 28 29 30
000
FTUS44 KHUN 290524
TAFMSL
TAF
KMSL 290524Z 2906/3006 15006KT P6SM FEW250 WS013/20030KT
     FM291400 19010KT P6SM SCT025 SCT250
     FM291800 19011KT P6SM BKN025=

USA.gov is the U.S. government's official web portal to all federal, state and local government web resources and services.